HRYR

Kigali International Airport

Kigali, Rwanda
TAF HRYR 161700Z 1618/1724 15004KT 9999 FEW026 FM 162200 00000KT CAVOK BECMG 1704/1707 VRB03KT FEW025 FM 170900 16008KT SCT025 TEMPO 1713/1717 20010KT FM 172000 00000KT CAVOK
Issued Valid From Valid To
Jul-16 @ 17:00 UTC
(3 hours ago)
Jul-16 @ 18:00 UTC
(2 hours ago)
Jul-18 @ 00:00 UTC
(-1 days ago)
Jul-16 @ 18:00 to Jul-16 @ 22:00
TAF HRYR 161700Z 1618/1724 15004KT 9999 FEW026 FM 162200 00000KT CAVOK
Wind Visibility Clouds
150° at 4 knots 10,000+ meters
  • Few at 2,600' AGL
From Jul-16 @ 22:00 to Jul-17 @ 04:00
Visibility Clouds Conditions
10,000+ meters
  • No significant clouds
Becoming Jul-17 @ 04:00 to Jul-17 @ 09:00
BECMG 1704/1707 VRB03KT FEW025 FM 170900 16008KT SCT025
Wind Visibility Clouds Conditions
Variable at 3 knots 10,000+ meters
  • Few at 2,500' AGL
From Jul-17 @ 09:00 to Jul-17 @ 20:00
Wind Clouds
160° at 8 knots
  • Scattered at 2,500' AGL
Temporary Jul-17 @ 13:00 to Jul-17 @ 17:00
TEMPO 1713/1717 20010KT FM 172000 00000KT CAVOK
Wind
200° at 10 knots
From Jul-17 @ 20:00 to Jul-18 @ 00:00
Visibility Clouds Conditions
10,000+ meters
  • No significant clouds
TAF HRYR 161700Z 1618/1724 15004KT 9999 FEW026 FM 162200 00000KT CAVOK BECMG 1704/1707 VRB03KT FEW025 FM 170900 16008KT SCT025 TEMPO 1713/1717 20010KT FM 172000 00000KT CAVOK
Issued Jul-16 @ 17:00 UTC
(3 hours ago)
Valid From Jul-16 @ 18:00 UTC
(2 hours ago)
Valid To Jul-18 @ 00:00 UTC
(-1 days ago)
Jul-16 @ 18:00 - Jul-16 @ 22:00
Wind Visibility
150° at 4 knots 10,000+ meters
Clouds
  • Few at 2,600' AGL
From Jul-16 @ 22:00 - Jul-17 @ 04:00
Clouds
  • No significant clouds
Conditions
Becoming Jul-17 @ 04:00 - Jul-17 @ 09:00
Wind Visibility
Variable at 3 knots 10,000+ meters
Clouds
  • Few at 2,500' AGL
Conditions
From Jul-17 @ 09:00 - Jul-17 @ 20:00
Wind
160° at 8 knots
Clouds
  • Scattered at 2,500' AGL
Temporary Jul-17 @ 13:00 - Jul-17 @ 17:00
Wind
200° at 10 knots
From Jul-17 @ 20:00 - Jul-18 @ 00:00
Clouds
  • No significant clouds
Conditions